createdAt,value
2023-04-07T00:01:04.781Z,65.06
2023-04-07T00:03:34.130Z,66.28
2023-04-07T00:06:02.061Z,68.40
2023-04-07T00:08:29.943Z,64.56
2023-04-07T00:10:58.817Z,67.43
2023-04-07T00:13:26.868Z,66.88
2023-04-07T00:15:55.325Z,66.26
2023-04-07T00:18:23.576Z,66.98
2023-04-07T00:20:51.396Z,64.92
2023-04-07T00:23:20.239Z,66.56
2023-04-07T00:25:52.933Z,65.39
2023-04-07T00:28:20.781Z,65.81
2023-04-07T00:30:49.098Z,67.61
2023-04-07T00:33:17.008Z,66.90
2023-04-07T00:35:45.405Z,65.30
2023-04-07T00:38:13.900Z,66.67
2023-04-07T00:40:41.783Z,68.34
2023-04-07T00:43:09.581Z,69.05
2023-04-07T00:45:38.210Z,67.74
2023-04-07T00:48:06.696Z,68.40
2023-04-07T00:50:34.509Z,68.91
2023-04-07T00:53:03.018Z,66.36
2023-04-07T00:55:31.321Z,66.69
2023-04-07T00:57:59.158Z,68.61
2023-04-07T01:00:28.397Z,65.78
2023-04-07T01:03:02.456Z,69.12
2023-04-07T01:05:47.604Z,69.35
2023-04-07T01:08:33.784Z,69.23
2023-04-07T01:11:44.146Z,69.48
2023-04-07T01:14:19.886Z,66.58
2023-04-07T01:16:55.920Z,66.53
2023-04-07T01:19:36.372Z,69.99
2023-04-07T01:22:13.177Z,69.11
2023-04-07T01:25:03.035Z,67.20
2023-04-07T01:27:47.328Z,69.40
2023-04-07T01:30:17.672Z,69.33
2023-04-07T01:32:51.187Z,70.68
2023-04-07T01:35:20.399Z,70.00
2023-04-07T01:37:50.892Z,69.67
2023-04-07T01:40:19.429Z,69.79
2023-04-07T01:42:49.052Z,70.07
2023-04-07T01:45:18.630Z,68.90
2023-04-07T01:47:48.121Z,68.23
2023-04-07T01:50:17.279Z,67.94
2023-04-07T01:52:46.569Z,69.71
2023-04-07T01:55:14.758Z,70.75
2023-04-07T01:57:43.624Z,68.30
2023-04-07T02:00:12.929Z,70.82
2023-04-07T02:02:47.080Z,70.43
2023-04-07T02:05:21.170Z,71.26
2023-04-07T02:08:07.396Z,70.42
2023-04-07T02:10:39.374Z,70.71
2023-04-07T02:13:10.902Z,68.94
2023-04-07T02:15:41.926Z,71.65
2023-04-07T02:18:11.106Z,69.50
2023-04-07T02:20:41.659Z,70.52
2023-04-07T02:23:12.919Z,71.66
2023-04-07T02:25:42.406Z,72.52
2023-04-07T02:28:10.671Z,70.54
2023-04-07T02:30:38.522Z,70.21
2023-04-07T02:33:06.366Z,71.49
2023-04-07T02:35:34.591Z,72.34
2023-04-07T02:38:03.188Z,71.05
2023-04-07T02:40:31.242Z,71.69
2023-04-07T02:42:59.842Z,70.70
2023-04-07T02:45:27.709Z,72.47
2023-04-07T02:47:55.642Z,71.86
2023-04-07T02:50:23.914Z,71.41
2023-04-07T02:52:51.786Z,70.82
2023-04-07T02:55:19.719Z,72.70
2023-04-07T02:57:48.035Z,71.57
2023-04-07T03:00:16.973Z,72.95
2023-04-07T03:02:46.085Z,72.10
2023-04-07T03:05:14.861Z,72.63
2023-04-07T03:07:42.755Z,72.43
2023-04-07T03:10:11.749Z,70.85
2023-04-07T03:12:39.953Z,72.09
2023-04-07T03:15:08.614Z,70.78
2023-04-07T03:17:37.431Z,71.15
2023-04-07T03:20:06.913Z,70.67
2023-04-07T03:22:36.598Z,70.26
2023-04-07T03:25:08.153Z,69.41
2023-04-07T03:27:36.383Z,71.08
2023-04-07T03:30:05.126Z,69.02
2023-04-07T03:32:33.003Z,70.28
2023-04-07T03:35:01.274Z,68.94
2023-04-07T03:37:30.688Z,68.23
2023-04-07T03:39:59.904Z,69.32
2023-04-07T03:42:28.299Z,68.32
2023-04-07T03:44:57.351Z,68.77
2023-04-07T03:47:25.824Z,69.01
2023-04-07T03:49:55.184Z,68.42
2023-04-07T03:52:23.549Z,68.64
2023-04-07T03:54:52.598Z,67.73
2023-04-07T03:57:22.363Z,67.81
2023-04-07T03:59:51.547Z,66.99
2023-04-07T04:02:19.870Z,67.20
2023-04-07T04:04:49.690Z,66.96
2023-04-07T04:07:18.099Z,66.64
2023-04-07T04:09:46.209Z,66.34
2023-04-07T04:12:14.454Z,66.11
2023-04-07T04:14:43.315Z,65.58
2023-04-07T04:17:11.480Z,65.45
2023-04-07T04:19:40.304Z,64.32
2023-04-07T04:22:10.480Z,65.08
2023-04-07T04:24:39.618Z,64.61
2023-04-07T04:27:07.914Z,63.97
2023-04-07T04:29:37.132Z,63.44
2023-04-07T04:32:05.952Z,64.07
2023-04-07T04:34:35.412Z,63.46
2023-04-07T04:37:03.402Z,63.67
2023-04-07T04:39:31.139Z,63.05
2023-04-07T04:42:00.033Z,62.73
2023-04-07T04:44:31.067Z,62.01
2023-04-07T04:47:01.175Z,62.44
2023-04-07T04:49:29.567Z,62.22
2023-04-07T04:52:00.144Z,61.44
2023-04-07T04:54:33.427Z,61.30
2023-04-07T04:57:02.036Z,60.49
2023-04-07T04:59:30.524Z,60.66
2023-04-07T05:01:58.995Z,60.57
2023-04-07T05:04:28.914Z,60.09
2023-04-07T05:06:57.787Z,59.34
2023-04-07T05:09:26.732Z,59.07
2023-04-07T05:11:54.495Z,58.57
2023-04-07T05:14:23.323Z,58.74
2023-04-07T05:16:53.226Z,57.68
2023-04-07T05:19:21.560Z,57.30
2023-04-07T05:21:50.800Z,58.04
2023-04-07T05:24:20.677Z,52.89
2023-04-07T05:26:51.798Z,57.02
2023-04-07T05:29:19.613Z,57.23
2023-04-07T05:31:47.475Z,57.70
2023-04-07T05:34:15.974Z,57.74
2023-04-07T05:36:44.059Z,51.52
2023-04-07T05:39:12.004Z,56.56
2023-04-07T05:41:40.885Z,55.89
2023-04-07T05:44:09.686Z,53.06
2023-04-07T05:46:37.915Z,55.94
2023-04-07T05:49:18.877Z,55.37
2023-04-07T05:51:49.125Z,54.56
2023-04-07T05:54:17.666Z,52.12
2023-04-07T05:56:45.898Z,53.34
2023-04-07T05:59:14.065Z,52.87
2023-04-07T06:01:43.368Z,52.96
2023-04-07T06:04:12.067Z,52.39
2023-04-07T06:06:40.206Z,46.58
2023-04-07T06:09:08.335Z,53.11
2023-04-07T06:11:37.130Z,52.02
2023-04-07T06:14:05.014Z,51.68
2023-04-07T06:16:32.955Z,51.07
2023-04-07T06:19:02.125Z,53.90
2023-04-07T06:21:31.019Z,51.06
2023-04-07T06:23:59.119Z,49.09
2023-04-07T06:26:28.697Z,49.26
2023-04-07T06:28:56.873Z,48.71
2023-04-07T06:31:25.183Z,49.47
2023-04-07T06:33:53.748Z,48.72
2023-04-07T06:36:22.072Z,47.49
2023-04-07T06:38:50.071Z,46.74
2023-04-07T06:41:18.370Z,46.83
2023-04-07T06:43:51.748Z,44.25
2023-04-07T06:46:20.555Z,53.84
2023-04-07T06:48:48.293Z,49.35
2023-04-07T06:51:16.344Z,49.01
2023-04-07T06:53:44.656Z,47.42
2023-04-07T06:56:12.769Z,46.45
2023-04-07T06:58:40.912Z,44.85
2023-04-07T07:01:09.420Z,44.43
2023-04-07T07:03:37.390Z,47.59
2023-04-07T07:06:05.898Z,46.58
2023-04-07T07:08:34.273Z,44.98
2023-04-07T07:11:02.022Z,42.58
2023-04-07T07:13:29.878Z,43.30
2023-04-07T07:15:58.319Z,46.20
2023-04-07T07:18:26.494Z,44.20
2023-04-07T07:20:54.388Z,42.97
2023-04-07T07:23:22.543Z,44.26
2023-04-07T07:25:50.371Z,42.26
2023-04-07T07:28:18.710Z,41.24
2023-04-07T07:30:46.995Z,39.76
2023-04-07T07:33:14.863Z,43.24
2023-04-07T07:35:42.848Z,40.77
2023-04-07T07:38:12.517Z,36.07
2023-04-07T07:40:40.427Z,41.96
2023-04-07T07:43:08.251Z,40.35
2023-04-07T07:45:36.442Z,38.86
2023-04-07T07:48:04.393Z,42.93
2023-04-07T07:50:32.194Z,40.68
2023-04-07T07:53:00.514Z,42.11
2023-04-07T07:55:29.642Z,38.00
2023-04-07T07:57:57.788Z,45.62
2023-04-07T08:00:26.241Z,40.89
2023-04-07T08:02:54.635Z,38.18
2023-04-07T08:05:22.584Z,38.17
2023-04-07T08:07:53.509Z,38.41
2023-04-07T08:10:23.623Z,37.79
2023-04-07T08:12:51.778Z,40.22
2023-04-07T08:15:19.611Z,37.71
2023-04-07T08:17:47.841Z,36.05
2023-04-07T08:20:16.616Z,33.65
2023-04-07T08:22:44.502Z,39.68
2023-04-07T08:25:12.897Z,37.25
2023-04-07T08:27:40.811Z,39.61
2023-04-07T08:30:08.844Z,38.46
2023-04-07T08:32:39.274Z,35.40
2023-04-07T08:35:07.440Z,36.27
2023-04-07T08:37:36.332Z,36.07
2023-04-07T08:40:05.509Z,35.79
2023-04-07T08:42:35.363Z,36.12
2023-04-07T08:45:06.304Z,36.23
2023-04-07T08:47:36.180Z,35.37
2023-04-07T08:50:09.749Z,36.43
2023-04-07T08:52:49.156Z,36.76
2023-04-07T08:55:17.212Z,40.44
2023-04-07T08:57:46.551Z,35.59
2023-04-07T09:00:15.838Z,33.60
2023-04-07T09:02:49.691Z,35.62
2023-04-07T09:05:17.963Z,35.87
2023-04-07T09:07:45.646Z,34.76
2023-04-07T09:10:13.540Z,30.58
2023-04-07T09:12:42.022Z,35.69
2023-04-07T09:15:10.131Z,39.05
2023-04-07T09:17:37.984Z,37.18
2023-04-07T09:20:07.241Z,30.13
2023-04-07T09:22:45.838Z,27.94
2023-04-07T09:25:19.339Z,36.52
2023-04-07T09:28:01.692Z,32.14
2023-04-07T09:30:31.866Z,35.58
2023-04-07T09:33:01.641Z,34.35
2023-04-07T09:35:30.299Z,34.38
2023-04-07T09:38:08.473Z,34.32
2023-04-07T09:40:37.889Z,37.57
2023-04-07T09:43:07.060Z,43.07
2023-04-07T09:45:39.563Z,35.55
2023-04-07T09:48:09.164Z,34.97
2023-04-07T09:50:41.702Z,34.58
2023-04-07T09:53:09.975Z,34.67
2023-04-07T09:55:40.212Z,33.10
2023-04-07T09:58:09.326Z,34.32
2023-04-07T10:00:38.487Z,32.67
2023-04-07T10:03:08.121Z,34.37
2023-04-07T10:05:39.636Z,31.35
2023-04-07T10:08:07.887Z,39.32
2023-04-07T10:10:36.907Z,33.58
2023-04-07T10:13:06.471Z,33.76
2023-04-07T10:15:35.070Z,35.19
2023-04-07T10:18:07.793Z,33.09
2023-04-07T10:20:40.013Z,32.79
2023-04-07T10:23:22.107Z,40.86
2023-04-07T10:25:53.057Z,40.80
2023-04-07T10:28:23.653Z,30.18
2023-04-07T10:30:52.947Z,37.83
2023-04-07T10:33:48.109Z,29.99
2023-04-07T10:36:18.261Z,35.58
2023-04-07T10:39:07.858Z,34.64
2023-04-07T10:41:37.989Z,36.64
2023-04-07T10:44:28.963Z,33.09
2023-04-07T10:46:57.462Z,37.67
2023-04-07T10:49:25.315Z,35.03
2023-04-07T10:52:12.271Z,33.45
2023-04-07T10:54:41.792Z,29.09
2023-04-07T10:57:17.311Z,35.27
2023-04-07T11:00:10.853Z,39.37
2023-04-07T11:02:40.738Z,34.21
2023-04-07T11:05:09.360Z,33.69
2023-04-07T11:07:55.500Z,27.96
2023-04-07T11:10:23.981Z,25.99
2023-04-07T11:13:08.900Z,30.75
2023-04-07T11:15:40.373Z,45.14
2023-04-07T11:18:19.584Z,32.39
2023-04-07T11:21:01.226Z,36.46
2023-04-07T11:23:29.875Z,31.11
2023-04-07T11:26:02.507Z,27.92
2023-04-07T11:28:31.764Z,38.18
2023-04-07T11:31:00.662Z,32.71
2023-04-07T11:33:31.073Z,41.96
2023-04-07T11:36:02.109Z,31.97
2023-04-07T11:38:36.630Z,36.23
2023-04-07T11:41:13.625Z,30.24
2023-04-07T11:43:42.677Z,30.74
2023-04-07T11:46:19.190Z,33.52
2023-04-07T11:48:47.737Z,29.14
2023-04-07T11:51:21.283Z,36.09
2023-04-07T11:53:56.770Z,34.01
2023-04-07T11:56:25.242Z,33.97
2023-04-07T11:58:55.357Z,26.11
2023-04-07T12:01:25.164Z,38.78
2023-04-07T12:04:02.384Z,30.48
2023-04-07T12:06:35.251Z,36.75
2023-04-07T12:09:04.958Z,37.40
2023-04-07T12:11:33.958Z,26.58
2023-04-07T12:14:05.361Z,28.21
2023-04-07T12:16:39.757Z,27.60
2023-04-07T12:19:07.658Z,27.84
2023-04-07T12:21:35.816Z,26.80
2023-04-07T12:24:03.794Z,29.21
2023-04-07T12:26:31.747Z,27.18
2023-04-07T12:29:06.249Z,26.58
2023-04-07T12:31:34.934Z,27.51
2023-04-07T12:34:03.755Z,33.21
2023-04-07T12:36:31.773Z,27.49
2023-04-07T12:39:00.300Z,27.17
2023-04-07T12:41:28.872Z,25.86
2023-04-07T12:43:56.834Z,31.22
2023-04-07T12:46:24.963Z,34.30
2023-04-07T12:48:53.646Z,26.04
2023-04-07T12:51:21.518Z,26.70
2023-04-07T12:53:49.646Z,27.75
2023-04-07T12:56:17.978Z,26.37
2023-04-07T12:58:46.260Z,26.70
2023-04-07T13:01:14.869Z,27.55
2023-04-07T13:03:43.523Z,26.70
2023-04-07T13:06:12.001Z,32.11
2023-04-07T13:08:41.137Z,33.21
2023-04-07T13:11:09.312Z,39.13
2023-04-07T13:13:37.096Z,28.51
2023-04-07T13:16:05.058Z,31.48
2023-04-07T13:18:33.358Z,34.73
2023-04-07T13:23:42.076Z,27.32
2023-04-07T13:26:11.683Z,26.98
2023-04-07T13:28:39.479Z,26.52
2023-04-07T13:31:07.958Z,25.65
2023-04-07T13:33:36.265Z,23.03
2023-04-07T13:36:04.294Z,22.66
2023-04-07T13:38:32.197Z,23.77
2023-04-07T13:41:00.427Z,26.34
2023-04-07T13:43:28.312Z,21.81
2023-04-07T13:45:56.979Z,22.81
2023-04-07T13:48:25.179Z,21.18
2023-04-07T13:50:52.987Z,21.45
2023-04-07T13:53:22.102Z,26.30
2023-04-07T13:55:50.175Z,21.52
2023-04-07T13:58:18.025Z,19.58
2023-04-07T14:00:46.053Z,19.27
2023-04-07T14:03:15.816Z,21.29
2023-04-07T14:05:43.814Z,21.97
2023-04-07T14:08:11.705Z,19.59
2023-04-07T14:10:41.039Z,20.94
2023-04-07T14:13:08.863Z,20.28
2023-04-07T14:15:36.791Z,20.68
2023-04-07T14:18:05.253Z,21.94
2023-04-07T14:20:34.066Z,24.31
2023-04-07T14:23:02.018Z,30.03
2023-04-07T14:25:30.188Z,24.99
2023-04-07T14:27:58.504Z,24.15
2023-04-07T14:30:26.469Z,23.06
2023-04-07T14:32:54.782Z,23.59
2023-04-07T14:35:22.749Z,23.26
2023-04-07T14:37:50.639Z,23.56
2023-04-07T14:40:21.425Z,23.71
2023-04-07T14:42:49.392Z,23.08
2023-04-07T14:45:18.155Z,21.48
2023-04-07T14:47:46.398Z,21.17
2023-04-07T14:50:14.340Z,20.95
2023-04-07T14:52:42.245Z,21.26
2023-04-07T14:55:10.605Z,21.62
2023-04-07T14:57:39.199Z,22.48
2023-04-07T15:00:07.929Z,22.24
2023-04-07T15:02:37.006Z,22.93
2023-04-07T15:05:05.273Z,22.44
2023-04-07T15:07:33.030Z,25.93
2023-04-07T15:10:01.259Z,21.25
2023-04-07T15:12:31.815Z,21.66
2023-04-07T15:14:59.558Z,21.37
2023-04-07T15:17:36.671Z,21.92
2023-04-07T15:20:22.968Z,22.18
2023-04-07T15:22:51.074Z,26.23
2023-04-07T15:25:37.285Z,27.36
2023-04-07T15:28:05.846Z,22.98
2023-04-07T15:30:35.870Z,23.61
2023-04-07T15:33:05.902Z,25.79
2023-04-07T15:35:33.736Z,25.04
2023-04-07T15:38:01.629Z,26.48
2023-04-07T15:40:29.854Z,29.97
2023-04-07T15:42:57.522Z,30.75
2023-04-07T15:45:26.075Z,30.30
2023-04-07T15:47:54.402Z,30.31
2023-04-07T15:50:23.610Z,36.09
2023-04-07T15:52:51.515Z,35.63
2023-04-07T15:55:19.876Z,38.41
2023-04-07T15:57:47.702Z,40.10
2023-04-07T16:00:15.744Z,42.67
2023-04-07T16:02:44.117Z,39.72
2023-04-07T16:05:11.944Z,40.90
2023-04-07T16:07:39.771Z,42.23
2023-04-07T16:10:08.796Z,45.29
2023-04-07T16:12:38.184Z,46.52
2023-04-07T16:15:07.653Z,43.06
2023-04-07T16:17:36.912Z,44.26
2023-04-07T16:20:05.218Z,45.82
2023-04-07T16:22:33.111Z,44.83
2023-04-07T16:25:01.566Z,42.60
2023-04-07T16:27:30.826Z,42.36
2023-04-07T16:29:58.646Z,43.98
2023-04-07T16:32:26.977Z,43.24
2023-04-07T16:34:54.941Z,46.03
2023-04-07T16:37:22.840Z,43.92
2023-04-07T16:39:51.013Z,49.54
2023-04-07T16:42:18.885Z,43.93
2023-04-07T16:44:46.857Z,49.20
2023-04-07T16:47:14.977Z,50.15
2023-04-07T16:49:42.786Z,45.74
2023-04-07T16:52:13.340Z,50.73
2023-04-07T16:54:41.516Z,50.84
2023-04-07T16:57:09.351Z,51.66
2023-04-07T16:59:37.204Z,46.33
2023-04-07T17:02:12.008Z,54.25
2023-04-07T17:04:41.230Z,52.82
2023-04-07T17:07:10.581Z,51.92
2023-04-07T17:09:38.550Z,50.71
2023-04-07T17:12:06.658Z,49.97
2023-04-07T17:14:35.086Z,48.06
2023-04-07T17:17:03.103Z,54.34
2023-04-07T17:19:30.972Z,52.25
2023-04-07T17:21:59.226Z,53.20
2023-04-07T17:24:30.916Z,50.67
2023-04-07T17:26:59.202Z,51.46
2023-04-07T17:29:29.344Z,51.20
2023-04-07T17:31:57.160Z,52.05
2023-04-07T17:34:25.748Z,51.18
2023-04-07T17:36:53.621Z,48.99
2023-04-07T17:39:21.633Z,50.19
2023-04-07T17:41:49.808Z,53.66
2023-04-07T17:44:17.739Z,50.93
2023-04-07T17:46:45.889Z,54.92
2023-04-07T17:49:14.889Z,52.80
2023-04-07T17:51:42.895Z,50.45
2023-04-07T17:54:10.585Z,52.54
2023-04-07T17:56:39.117Z,56.08
2023-04-07T17:59:06.977Z,53.08
2023-04-07T18:01:34.919Z,54.73
2023-04-07T18:04:05.969Z,53.34
2023-04-07T18:06:35.468Z,55.92
2023-04-07T18:09:06.515Z,55.30
2023-04-07T18:11:34.354Z,55.36
2023-04-07T18:14:02.452Z,54.32
2023-04-07T18:16:30.860Z,55.83
2023-04-07T18:18:58.980Z,55.98
2023-04-07T18:21:27.497Z,55.53
2023-04-07T18:23:56.220Z,56.59
2023-04-07T18:26:24.058Z,53.70
2023-04-07T18:28:51.935Z,55.60
2023-04-07T18:31:20.475Z,55.24
2023-04-07T18:33:48.699Z,55.43
2023-04-07T18:36:17.346Z,55.16
2023-04-07T18:38:45.866Z,54.79
2023-04-07T18:41:14.543Z,54.85
2023-04-07T18:43:42.698Z,56.39
2023-04-07T18:46:11.067Z,58.67
2023-04-07T18:48:39.413Z,58.40
2023-04-07T18:51:07.806Z,58.01
2023-04-07T18:53:36.302Z,56.66
2023-04-07T18:56:04.211Z,54.90
2023-04-07T18:58:32.224Z,56.26
2023-04-07T19:01:00.457Z,58.44
2023-04-07T19:03:28.480Z,56.34
2023-04-07T19:05:56.955Z,56.25
2023-04-07T19:08:25.007Z,56.62
2023-04-07T19:10:52.915Z,59.02
2023-04-07T19:13:20.989Z,55.12
2023-04-07T19:15:49.121Z,56.51
2023-04-07T19:18:16.996Z,59.22
2023-04-07T19:20:44.872Z,57.14
2023-04-07T19:23:13.170Z,57.33
2023-04-07T19:25:44.388Z,58.81
2023-04-07T19:28:14.060Z,57.92
2023-04-07T19:30:41.782Z,57.80
2023-04-07T19:33:10.461Z,57.71
2023-04-07T19:35:42.602Z,57.28
2023-04-07T19:38:10.683Z,59.41
2023-04-07T19:40:38.966Z,57.78
2023-04-07T19:43:07.451Z,56.94
2023-04-07T19:45:35.246Z,57.40
2023-04-07T19:48:03.771Z,59.33
2023-04-07T19:50:31.907Z,59.01
2023-04-07T19:52:59.799Z,58.28
2023-04-07T19:55:28.085Z,57.50
2023-04-07T19:57:56.053Z,57.80
2023-04-07T20:00:24.002Z,57.46
2023-04-07T20:02:52.981Z,56.59
2023-04-07T20:05:21.111Z,57.18
2023-04-07T20:07:48.942Z,57.80
2023-04-07T20:10:17.332Z,58.00
2023-04-07T20:12:45.216Z,56.57
2023-04-07T20:15:13.048Z,57.49
2023-04-07T20:17:41.534Z,58.14
2023-04-07T20:20:09.823Z,55.14
2023-04-07T20:22:37.647Z,58.79
2023-04-07T20:25:06.579Z,56.90
2023-04-07T20:27:34.724Z,58.21
2023-04-07T20:30:03.346Z,58.97
2023-04-07T20:32:31.597Z,57.51
2023-04-07T20:34:59.517Z,58.02
2023-04-07T20:37:28.094Z,57.10
2023-04-07T20:39:56.356Z,57.08
2023-04-07T20:42:24.235Z,56.48
2023-04-07T20:44:53.570Z,57.07
2023-04-07T20:47:22.147Z,56.72
2023-04-07T20:49:50.085Z,56.69
2023-04-07T20:52:18.995Z,56.98
2023-04-07T20:54:48.656Z,56.52
2023-04-07T20:57:16.595Z,57.08
2023-04-07T20:59:44.392Z,56.84
2023-04-07T21:02:12.700Z,57.07
2023-04-07T21:04:40.874Z,57.18
2023-04-07T21:07:08.567Z,56.11
2023-04-07T21:09:36.710Z,56.42
2023-04-07T21:12:04.666Z,55.95
2023-04-07T21:14:32.675Z,58.42
2023-04-07T21:17:00.806Z,57.16
2023-04-07T21:19:28.757Z,56.85
2023-04-07T21:21:56.689Z,60.01
2023-04-07T21:24:24.914Z,58.96
2023-04-07T21:26:53.759Z,61.35
2023-04-07T21:29:22.347Z,58.98
2023-04-07T21:31:51.121Z,60.00
2023-04-07T21:34:18.971Z,59.99
2023-04-07T21:36:46.783Z,63.06
2023-04-07T21:39:15.010Z,60.88
2023-04-07T21:41:45.512Z,60.30
2023-04-07T21:44:13.583Z,63.27
2023-04-07T21:46:41.973Z,61.96
2023-04-07T21:49:09.789Z,62.48
2023-04-07T21:51:37.987Z,62.54
2023-04-07T21:54:06.618Z,62.70
2023-04-07T21:56:34.453Z,62.27
2023-04-07T21:59:03.664Z,63.43
2023-04-07T22:01:32.050Z,61.36
2023-04-07T22:04:00.445Z,63.69
2023-04-07T22:06:28.459Z,64.67
2023-04-07T22:09:01.921Z,63.27
2023-04-07T22:11:30.794Z,64.64
2023-04-07T22:13:58.706Z,62.60
2023-04-07T22:16:26.594Z,63.38
2023-04-07T22:18:54.988Z,64.76
2023-04-07T22:21:22.979Z,61.80
2023-04-07T22:23:50.814Z,62.87
2023-04-07T22:26:19.070Z,63.40
2023-04-07T22:28:46.928Z,61.99
2023-04-07T22:31:14.829Z,62.08
2023-04-07T22:33:43.110Z,63.38
2023-04-07T22:36:11.044Z,62.23
2023-04-07T22:38:38.938Z,62.66
2023-04-07T22:41:07.005Z,63.94
2023-04-07T22:43:34.940Z,61.18
2023-04-07T22:46:02.780Z,63.24
2023-04-07T22:48:31.138Z,63.99
2023-04-07T22:50:58.932Z,64.05
2023-04-07T22:53:26.778Z,62.86
2023-04-07T22:55:54.993Z,64.59
2023-04-07T22:58:22.829Z,62.57
2023-04-07T23:00:50.731Z,63.97
2023-04-07T23:03:19.023Z,64.88
2023-04-07T23:05:46.836Z,60.81
2023-04-07T23:08:14.632Z,64.13
2023-04-07T23:10:42.869Z,63.73
2023-04-07T23:13:10.700Z,64.45
2023-04-07T23:15:38.493Z,64.71
2023-04-07T23:18:06.912Z,64.94
2023-04-07T23:20:34.783Z,64.38
2023-04-07T23:23:02.568Z,60.99
2023-04-07T23:25:30.879Z,62.78
2023-04-07T23:27:58.626Z,63.56
2023-04-07T23:30:26.624Z,63.83
2023-04-07T23:32:54.836Z,63.42
2023-04-07T23:35:22.646Z,64.52
2023-04-07T23:37:50.620Z,63.29
2023-04-07T23:40:18.978Z,64.07
2023-04-07T23:42:46.926Z,63.56
2023-04-07T23:45:14.981Z,63.94
2023-04-07T23:47:43.253Z,63.46
2023-04-07T23:50:11.318Z,64.06
2023-04-07T23:52:39.165Z,63.61
2023-04-07T23:55:07.720Z,63.49
2023-04-07T23:57:35.579Z,64.20
